createdAt,value
2018-12-10T00:00:18.784Z,4.57
2018-12-10T00:01:18.784Z,4.55
2018-12-10T00:02:18.772Z,4.57
2018-12-10T00:03:18.775Z,4.42
2018-12-10T00:04:18.769Z,4.44
2018-12-10T00:05:18.788Z,4.57
2018-12-10T00:06:18.756Z,4.51
2018-12-10T00:07:18.748Z,4.50
2018-12-10T00:08:18.753Z,4.39
2018-12-10T00:09:18.769Z,4.37
2018-12-10T00:10:18.732Z,4.37
2018-12-10T00:11:18.728Z,4.39
2018-12-10T00:12:18.719Z,4.40
2018-12-10T00:13:18.723Z,4.33
2018-12-10T00:14:18.739Z,4.36
2018-12-10T00:15:18.710Z,4.26
2018-12-10T00:16:18.705Z,4.25
2018-12-10T00:17:18.701Z,4.28
2018-12-10T00:18:18.691Z,4.18
2018-12-10T00:19:18.720Z,4.18
2018-12-10T00:20:18.722Z,4.16
2018-12-10T00:21:18.680Z,4.21
2018-12-10T00:22:18.672Z,4.14
2018-12-10T00:23:18.671Z,4.18
2018-12-10T00:24:18.665Z,4.24
2018-12-10T00:25:18.694Z,4.16
2018-12-10T00:26:18.652Z,4.16
2018-12-10T00:27:18.647Z,4.14
2018-12-10T00:28:18.645Z,4.10
2018-12-10T00:29:18.636Z,4.00
2018-12-10T00:30:18.660Z,4.04
2018-12-10T00:31:18.628Z,4.01
2018-12-10T00:32:18.634Z,3.85
2018-12-10T00:33:18.612Z,3.89
2018-12-10T00:34:18.639Z,3.90
2018-12-10T00:35:18.608Z,3.76
2018-12-10T00:36:18.603Z,3.78
2018-12-10T00:37:18.599Z,3.82
2018-12-10T00:38:18.591Z,3.79
2018-12-10T00:39:18.611Z,3.76
2018-12-10T00:40:18.578Z,3.71
2018-12-10T00:41:18.580Z,3.68
2018-12-10T00:42:18.577Z,3.76
2018-12-10T00:43:18.563Z,3.68
2018-12-10T00:44:18.584Z,3.65
2018-12-10T00:45:18.554Z,3.68
2018-12-10T00:46:18.548Z,3.62
2018-12-10T00:47:18.540Z,3.60
2018-12-10T00:48:18.539Z,3.62
2018-12-10T00:49:18.562Z,3.65
2018-12-10T00:50:18.526Z,3.65
2018-12-10T00:51:18.523Z,3.67
2018-12-10T00:52:18.518Z,3.76
2018-12-10T00:53:18.512Z,3.72
2018-12-10T00:54:18.534Z,3.68
2018-12-10T00:55:18.499Z,3.83
2018-12-10T00:56:18.494Z,3.80
2018-12-10T00:57:18.490Z,3.86
2018-12-10T00:58:18.482Z,3.89
2018-12-10T00:59:18.509Z,3.89
2018-12-10T01:00:18.474Z,3.89
2018-12-10T01:01:18.472Z,3.86
2018-12-10T01:02:18.463Z,3.82
2018-12-10T01:03:18.458Z,3.94
2018-12-10T01:04:18.478Z,3.88
2018-12-10T01:05:18.448Z,3.97
2018-12-10T01:06:18.446Z,3.90
2018-12-10T01:07:18.435Z,3.90
2018-12-10T01:08:18.434Z,3.97
2018-12-10T01:09:18.445Z,4.00
2018-12-10T01:10:18.421Z,4.00
2018-12-10T01:11:18.415Z,3.97
2018-12-10T01:12:18.410Z,3.89
2018-12-10T01:13:18.404Z,3.76
2018-12-10T01:14:18.431Z,3.82
2018-12-10T01:15:18.397Z,3.64
2018-12-10T01:16:18.389Z,3.71
2018-12-10T01:17:18.381Z,3.79
2018-12-10T01:18:18.380Z,3.68
2018-12-10T01:19:18.404Z,3.76
2018-12-10T01:20:18.361Z,3.68
2018-12-10T01:21:18.367Z,3.65
2018-12-10T01:22:18.361Z,3.53
2018-12-10T01:23:18.350Z,3.68
2018-12-10T01:24:18.383Z,3.65
2018-12-10T01:25:18.342Z,3.57
2018-12-10T01:26:18.335Z,3.61
2018-12-10T01:27:18.334Z,3.60
2018-12-10T01:28:18.330Z,3.67
2018-12-10T01:29:18.347Z,3.65
2018-12-10T01:30:18.319Z,3.60
2018-12-10T01:31:18.307Z,3.61
2018-12-10T01:32:18.305Z,3.52
2018-12-10T01:33:18.322Z,3.44
2018-12-10T01:34:18.293Z,3.50
2018-12-10T01:35:18.285Z,3.47
2018-12-10T01:36:18.286Z,3.39
2018-12-10T01:37:18.273Z,3.31
2018-12-10T01:38:18.301Z,3.34
2018-12-10T01:39:18.266Z,3.34
2018-12-10T01:40:18.257Z,3.39
2018-12-10T01:41:18.261Z,3.36
2018-12-10T01:42:18.250Z,3.40
2018-12-10T01:43:18.278Z,3.43
2018-12-10T01:44:18.237Z,3.34
2018-12-10T01:45:18.236Z,3.31
2018-12-10T01:46:18.226Z,3.49
2018-12-10T01:47:18.220Z,3.27
2018-12-10T01:48:18.244Z,3.28
2018-12-10T01:49:18.209Z,3.36
2018-12-10T01:50:18.202Z,3.36
2018-12-10T01:51:18.199Z,3.39
2018-12-10T01:52:18.196Z,3.42
2018-12-10T01:53:18.218Z,3.39
2018-12-10T01:54:18.209Z,3.40
2018-12-10T01:55:18.173Z,3.27
2018-12-10T01:56:18.172Z,3.36
2018-12-10T01:57:18.166Z,3.36
2018-12-10T01:58:18.157Z,3.42
2018-12-10T01:59:18.181Z,3.36
2018-12-10T02:00:18.145Z,3.34
2018-12-10T02:01:18.140Z,3.33
2018-12-10T02:02:18.142Z,3.42
2018-12-10T02:03:18.130Z,3.27
2018-12-10T02:04:18.153Z,3.44
2018-12-10T02:05:18.117Z,3.44
2018-12-10T02:06:18.115Z,3.34
2018-12-10T02:07:18.109Z,3.36
2018-12-10T02:08:18.105Z,3.36
2018-12-10T02:09:18.124Z,3.34
2018-12-10T02:10:18.090Z,3.46
2018-12-10T02:11:18.085Z,3.25
2018-12-10T02:12:18.084Z,3.36
2018-12-10T02:13:18.073Z,3.43
2018-12-10T02:14:18.096Z,3.31
2018-12-10T02:15:18.060Z,3.40
2018-12-10T02:16:18.052Z,3.36
2018-12-10T02:17:18.048Z,3.42
2018-12-10T02:18:18.044Z,3.36
2018-12-10T02:19:18.068Z,3.34
2018-12-10T02:20:18.064Z,3.49
2018-12-10T02:21:18.029Z,3.36
2018-12-10T02:22:18.024Z,3.39
2018-12-10T02:23:18.017Z,3.40
2018-12-10T02:24:18.011Z,3.44
2018-12-10T02:25:18.034Z,3.43
2018-12-10T02:26:18.000Z,3.39
2018-12-10T02:27:18.000Z,3.34
2018-12-10T02:28:17.988Z,3.46
2018-12-10T02:29:17.985Z,3.46
2018-12-10T02:30:18.008Z,3.42
2018-12-10T02:31:17.970Z,3.40
2018-12-10T02:32:17.969Z,3.52
2018-12-10T02:33:17.959Z,3.39
2018-12-10T02:34:17.962Z,3.44
2018-12-10T02:35:17.975Z,3.44
2018-12-10T02:36:17.947Z,3.44
2018-12-10T02:37:17.935Z,3.50
2018-12-10T02:38:17.933Z,3.52
2018-12-10T02:39:17.931Z,3.44
2018-12-10T02:40:17.947Z,3.53
2018-12-10T02:41:17.913Z,3.52
2018-12-10T02:42:17.912Z,3.47
2018-12-10T02:43:17.905Z,3.53
2018-12-10T02:44:17.910Z,3.50
2018-12-10T02:45:17.920Z,3.50
2018-12-10T02:46:17.903Z,3.50
2018-12-10T02:47:17.890Z,3.53
2018-12-10T02:48:17.878Z,3.52
2018-12-10T02:49:17.874Z,3.57
2018-12-10T02:50:17.897Z,3.60
2018-12-10T02:51:17.860Z,3.60
2018-12-10T02:52:17.855Z,3.61
2018-12-10T02:53:17.848Z,3.67
2018-12-10T02:54:17.844Z,3.54
2018-12-10T02:55:17.873Z,3.52
2018-12-10T02:56:17.830Z,3.70
2018-12-10T02:57:17.832Z,3.57
2018-12-10T02:58:17.830Z,3.54
2018-12-10T02:59:17.815Z,3.54
2018-12-10T03:00:17.840Z,3.53
2018-12-10T03:01:17.805Z,3.47
2018-12-10T03:02:17.803Z,3.47
2018-12-10T03:03:17.810Z,3.46
2018-12-10T03:04:17.790Z,3.44
2018-12-10T03:05:17.803Z,3.36
2018-12-10T03:06:17.779Z,3.44
2018-12-10T03:07:17.770Z,3.49
2018-12-10T03:08:17.767Z,3.44
2018-12-10T03:09:17.760Z,3.54
2018-12-10T03:10:17.778Z,3.53
2018-12-10T03:11:17.750Z,3.53
2018-12-10T03:12:17.745Z,3.53
2018-12-10T03:13:17.739Z,3.42
2018-12-10T03:14:17.731Z,3.42
2018-12-10T03:15:17.762Z,3.42
2018-12-10T03:16:17.718Z,3.46
2018-12-10T03:17:17.709Z,3.42
2018-12-10T03:18:17.709Z,3.54
2018-12-10T03:19:17.706Z,3.43
2018-12-10T03:20:17.721Z,3.50
2018-12-10T03:21:17.697Z,3.31
2018-12-10T03:22:17.687Z,3.49
2018-12-10T03:23:17.683Z,3.49
2018-12-10T03:24:17.675Z,3.54
2018-12-10T03:25:17.694Z,3.46
2018-12-10T03:26:17.662Z,3.46
2018-12-10T03:27:17.665Z,3.49
2018-12-10T03:28:17.654Z,3.62
2018-12-10T03:29:17.677Z,3.60
2018-12-10T03:30:17.648Z,3.57
2018-12-10T03:31:17.638Z,3.54
2018-12-10T03:32:17.630Z,3.49
2018-12-10T03:33:17.660Z,3.47
2018-12-10T03:34:17.616Z,3.57
2018-12-10T03:35:17.643Z,3.60
2018-12-10T03:36:17.610Z,3.64
2018-12-10T03:37:17.600Z,3.57
2018-12-10T03:38:17.596Z,3.58
2018-12-10T03:39:17.588Z,3.67
2018-12-10T03:40:17.612Z,3.62
2018-12-10T03:41:17.578Z,3.72
2018-12-10T03:42:17.572Z,3.62
2018-12-10T03:43:17.574Z,3.60
2018-12-10T03:44:17.560Z,3.79
2018-12-10T03:45:17.584Z,3.62
2018-12-10T03:46:17.549Z,3.67
2018-12-10T03:47:17.546Z,3.71
2018-12-10T03:48:17.539Z,3.68
2018-12-10T03:49:17.533Z,3.65
2018-12-10T03:50:17.557Z,3.78
2018-12-10T03:51:17.526Z,3.85
2018-12-10T03:52:17.515Z,3.80
2018-12-10T03:53:17.515Z,3.76
2018-12-10T03:54:17.508Z,3.79
2018-12-10T03:55:17.532Z,3.80
2018-12-10T03:56:17.495Z,3.76
2018-12-10T03:57:17.488Z,3.78
2018-12-10T03:58:17.483Z,3.80
2018-12-10T03:59:17.480Z,3.79
2018-12-10T04:00:17.501Z,3.80
2018-12-10T04:01:17.465Z,3.62
2018-12-10T04:02:17.458Z,3.71
2018-12-10T04:03:17.453Z,3.79
2018-12-10T04:04:17.464Z,3.68
2018-12-10T04:05:17.475Z,3.75
2018-12-10T04:06:17.443Z,3.80
2018-12-10T04:07:17.439Z,3.79
2018-12-10T04:08:17.429Z,3.72
2018-12-10T04:09:17.423Z,3.79
2018-12-10T04:10:17.443Z,3.89
2018-12-10T04:11:17.411Z,3.80
2018-12-10T04:12:17.410Z,3.80
2018-12-10T04:13:17.400Z,3.80
2018-12-10T04:14:17.399Z,3.78
2018-12-10T04:15:17.425Z,3.88
2018-12-10T04:16:17.389Z,3.89
2018-12-10T04:17:17.384Z,3.89
2018-12-10T04:18:17.377Z,3.88
2018-12-10T04:19:17.374Z,3.89
2018-12-10T04:20:17.392Z,3.85
2018-12-10T04:21:17.359Z,3.92
2018-12-10T04:22:17.352Z,3.90
2018-12-10T04:23:17.347Z,3.94
2018-12-10T04:24:17.345Z,3.83
2018-12-10T04:25:17.367Z,3.78
2018-12-10T04:26:17.334Z,3.82
2018-12-10T04:27:17.334Z,3.83
2018-12-10T04:28:17.326Z,3.94
2018-12-10T04:29:17.316Z,3.71
2018-12-10T04:30:17.338Z,3.75
2018-12-10T04:31:17.362Z,3.76
2018-12-10T04:32:17.298Z,3.72
2018-12-10T04:33:17.435Z,3.71
2018-12-10T04:34:17.286Z,3.68
2018-12-10T04:35:17.312Z,3.60
2018-12-10T04:36:17.278Z,3.75
2018-12-10T04:37:17.276Z,3.65
2018-12-10T04:38:17.281Z,3.64
2018-12-10T04:39:17.267Z,3.64
2018-12-10T04:40:17.278Z,3.72
2018-12-10T04:41:17.255Z,3.64
2018-12-10T04:42:17.241Z,3.62
2018-12-10T04:43:17.242Z,3.72
2018-12-10T04:44:17.234Z,3.61
2018-12-10T04:45:17.257Z,3.78
2018-12-10T04:46:17.222Z,3.68
2018-12-10T04:47:17.217Z,3.70
2018-12-10T04:48:17.236Z,3.67
2018-12-10T04:49:17.205Z,3.82
2018-12-10T04:50:17.355Z,3.80
2018-12-10T04:51:17.204Z,3.76
2018-12-10T04:52:17.192Z,3.82
2018-12-10T04:53:17.188Z,3.76
2018-12-10T04:54:17.178Z,3.78
2018-12-10T04:55:17.207Z,3.76
2018-12-10T04:56:17.183Z,3.78
2018-12-10T04:57:17.162Z,3.82
2018-12-10T04:58:17.158Z,3.78
2018-12-10T04:59:17.156Z,3.78
2018-12-10T05:00:17.180Z,3.72
2018-12-10T05:01:17.141Z,3.78
2018-12-10T05:02:17.132Z,3.76
2018-12-10T05:03:17.130Z,3.94
2018-12-10T05:04:17.123Z,3.64
2018-12-10T05:05:17.146Z,3.97
2018-12-10T05:06:17.165Z,3.88
2018-12-10T05:07:17.121Z,3.89
2018-12-10T05:08:17.106Z,3.92
2018-12-10T05:09:17.101Z,3.80
2018-12-10T05:10:17.122Z,3.86
2018-12-10T05:11:17.090Z,3.83
2018-12-10T05:12:17.083Z,3.86
2018-12-10T05:13:17.204Z,3.89
2018-12-10T05:14:17.071Z,3.83
2018-12-10T05:15:17.092Z,3.76
2018-12-10T05:16:17.061Z,3.78
2018-12-10T05:17:17.055Z,3.82
2018-12-10T05:18:17.047Z,3.76
2018-12-10T05:19:17.045Z,3.85
2018-12-10T05:20:17.069Z,3.82
2018-12-10T05:21:17.034Z,3.71
2018-12-10T05:22:17.029Z,3.78
2018-12-10T05:23:17.029Z,3.76
2018-12-10T05:24:17.017Z,3.67
2018-12-10T05:25:17.037Z,3.75
2018-12-10T05:26:17.005Z,3.72
2018-12-10T05:27:17.001Z,3.62
2018-12-10T05:28:17.004Z,3.72
2018-12-10T05:29:16.990Z,3.68
2018-12-10T05:30:17.015Z,3.70
2018-12-10T05:31:16.980Z,3.76
2018-12-10T05:32:16.983Z,3.71
2018-12-10T05:33:16.980Z,3.68
2018-12-10T05:34:16.965Z,3.80
2018-12-10T05:35:16.986Z,3.76
2018-12-10T05:36:16.954Z,3.82
2018-12-10T05:37:16.950Z,3.82
2018-12-10T05:38:16.941Z,3.76
2018-12-10T05:39:16.935Z,3.82
2018-12-10T05:40:16.967Z,3.82
2018-12-10T05:41:16.952Z,3.82
2018-12-10T05:42:16.920Z,3.76
2018-12-10T05:43:16.916Z,3.80
2018-12-10T05:44:16.911Z,3.85
2018-12-10T05:45:17.038Z,3.85
2018-12-10T05:46:16.901Z,3.92
2018-12-10T05:47:16.892Z,3.86
2018-12-10T05:48:16.888Z,3.82
2018-12-10T05:49:16.989Z,3.80
2018-12-10T05:50:16.910Z,3.88
2018-12-10T05:51:16.871Z,3.89
2018-12-10T05:52:16.874Z,3.83
2018-12-10T05:53:16.862Z,3.80
2018-12-10T05:54:16.862Z,3.76
2018-12-10T05:55:16.884Z,3.83
2018-12-10T05:56:16.852Z,3.71
2018-12-10T05:57:16.844Z,3.78
2018-12-10T05:58:17.812Z,3.75
2018-12-10T05:59:16.830Z,3.68
2018-12-10T06:00:16.852Z,3.67
2018-12-10T06:01:16.828Z,3.64
2018-12-10T06:02:16.819Z,3.71
2018-12-10T06:03:16.816Z,3.72
2018-12-10T06:04:16.805Z,3.65
2018-12-10T06:05:16.826Z,3.72
2018-12-10T06:06:16.802Z,3.72
2018-12-10T06:07:16.785Z,3.75
2018-12-10T06:08:16.789Z,3.70
2018-12-10T06:09:16.775Z,3.75
2018-12-10T06:10:16.800Z,3.78
2018-12-10T06:11:16.762Z,3.72
2018-12-10T06:12:16.763Z,3.76
2018-12-10T06:13:16.755Z,3.78
2018-12-10T06:14:16.746Z,3.70
2018-12-10T06:15:16.743Z,3.71
2018-12-10T06:16:16.860Z,3.70
2018-12-10T06:17:16.730Z,3.76
2018-12-10T06:18:16.745Z,3.80
2018-12-10T06:19:16.724Z,3.82
2018-12-10T06:20:16.762Z,3.78
2018-12-10T06:21:16.738Z,3.71
2018-12-10T06:22:16.706Z,3.79
2018-12-10T06:23:16.701Z,3.78
2018-12-10T06:24:16.699Z,3.70
2018-12-10T06:25:16.693Z,3.78
2018-12-10T06:26:16.714Z,3.67
2018-12-10T06:27:16.674Z,3.70
2018-12-10T06:28:16.680Z,3.68
2018-12-10T06:29:16.667Z,3.76
2018-12-10T06:30:16.694Z,3.65
2018-12-10T06:31:16.660Z,3.61
2018-12-10T06:32:16.679Z,3.60
2018-12-10T06:33:16.666Z,3.68
2018-12-10T06:34:16.652Z,3.68
2018-12-10T06:35:16.643Z,3.82
2018-12-10T06:36:16.666Z,3.72
2018-12-10T06:37:16.633Z,3.71
2018-12-10T06:38:16.642Z,3.70
2018-12-10T06:39:16.727Z,3.65
2018-12-10T06:40:16.642Z,3.70
2018-12-10T06:41:16.603Z,3.67
2018-12-10T06:42:16.601Z,3.75
2018-12-10T06:43:16.597Z,3.62
2018-12-10T06:44:16.583Z,3.71
2018-12-10T06:45:16.642Z,3.65
2018-12-10T06:46:16.576Z,3.62
2018-12-10T06:47:16.579Z,3.72
2018-12-10T06:48:16.565Z,3.72
2018-12-10T06:49:16.588Z,3.68
2018-12-10T06:50:16.592Z,3.68
2018-12-10T06:51:16.560Z,3.71
2018-12-10T06:52:16.550Z,3.75
2018-12-10T06:53:16.545Z,3.71
2018-12-10T06:54:16.539Z,3.62
2018-12-10T06:55:16.556Z,3.72
2018-12-10T06:56:16.627Z,3.62
2018-12-10T06:57:16.513Z,3.65
2018-12-10T06:58:19.818Z,3.70
2018-12-10T06:59:16.503Z,3.60
2018-12-10T07:00:16.528Z,3.75
2018-12-10T07:01:17.455Z,3.62
2018-12-10T07:02:17.319Z,3.60
2018-12-10T07:03:17.549Z,3.61
2018-12-10T07:04:17.477Z,3.62
2018-12-10T07:05:16.506Z,3.75
2018-12-10T07:06:16.464Z,3.72
2018-12-10T07:07:16.459Z,3.61
2018-12-10T07:08:16.456Z,3.67
2018-12-10T07:09:16.458Z,3.68
2018-12-10T07:10:16.471Z,3.65
2018-12-10T07:11:16.442Z,3.68
2018-12-10T07:12:16.434Z,3.72
2018-12-10T07:13:16.432Z,3.62
2018-12-10T07:14:16.430Z,3.57
2018-12-10T07:15:16.436Z,3.54
2018-12-10T07:16:16.411Z,3.58
2018-12-10T07:17:16.411Z,3.43
2018-12-10T07:18:16.400Z,3.34
2018-12-10T07:19:16.399Z,3.33
2018-12-10T07:20:16.414Z,3.25
2018-12-10T07:21:16.383Z,3.15
2018-12-10T07:22:16.384Z,3.18
2018-12-10T07:23:16.375Z,3.18
2018-12-10T07:24:16.399Z,3.23
2018-12-10T07:25:16.364Z,3.20
2018-12-10T07:26:16.389Z,3.18
2018-12-10T07:27:16.356Z,3.18
2018-12-10T07:28:16.346Z,3.16
2018-12-10T07:29:16.338Z,3.20
2018-12-10T07:30:16.365Z,3.18
2018-12-10T07:31:16.332Z,3.23
2018-12-10T07:32:16.322Z,3.27
2018-12-10T07:33:16.336Z,3.20
2018-12-10T07:34:16.312Z,3.21
2018-12-10T07:35:16.338Z,3.30
2018-12-10T07:36:16.303Z,3.28
2018-12-10T07:37:16.294Z,3.31
2018-12-10T07:38:16.285Z,3.28
2018-12-10T07:39:16.286Z,3.24
2018-12-10T07:40:16.306Z,3.33
2018-12-10T07:41:16.296Z,3.30
2018-12-10T07:42:16.269Z,3.30
2018-12-10T07:43:16.261Z,3.30
2018-12-10T07:44:16.261Z,3.34
2018-12-10T07:45:16.277Z,3.36
2018-12-10T07:46:16.239Z,3.43
2018-12-10T07:47:16.250Z,3.34
2018-12-10T07:48:16.234Z,3.33
2018-12-10T07:49:16.258Z,3.39
2018-12-10T07:50:16.221Z,3.39
2018-12-10T07:51:16.218Z,3.36
2018-12-10T07:52:16.212Z,3.39
2018-12-10T07:53:16.198Z,3.39
2018-12-10T07:54:16.220Z,3.34
2018-12-10T07:55:16.217Z,3.36
2018-12-10T07:56:16.193Z,3.43
2018-12-10T07:57:16.180Z,3.36
2018-12-10T07:58:16.265Z,3.43
2018-12-10T07:59:16.198Z,3.47
2018-12-10T08:00:16.165Z,3.49
2018-12-10T08:01:16.156Z,3.44
2018-12-10T08:02:16.153Z,3.49
2018-12-10T08:03:16.144Z,3.44
2018-12-10T08:04:16.165Z,3.42
2018-12-10T08:05:16.137Z,3.39
2018-12-10T08:06:16.127Z,3.36
2018-12-10T08:07:16.124Z,3.39
2018-12-10T08:08:16.125Z,3.36
2018-12-10T08:09:16.144Z,3.33
2018-12-10T08:10:16.107Z,3.31
2018-12-10T08:11:16.097Z,3.36
2018-12-10T08:12:16.101Z,3.40
2018-12-10T08:13:16.093Z,3.42
2018-12-10T08:14:16.112Z,3.42
2018-12-10T08:15:16.079Z,3.39
2018-12-10T08:16:16.101Z,3.36
2018-12-10T08:17:16.067Z,3.36
2018-12-10T08:18:16.069Z,3.36
2018-12-10T08:19:16.084Z,3.40
2018-12-10T08:20:16.051Z,3.46
2018-12-10T08:21:16.045Z,3.44
2018-12-10T08:22:16.041Z,3.36
2018-12-10T08:23:16.039Z,3.40
2018-12-10T08:24:16.060Z,3.40
2018-12-10T08:25:16.034Z,3.40
2018-12-10T08:26:16.021Z,3.34
2018-12-10T08:27:16.040Z,3.43
2018-12-10T08:28:16.011Z,3.43
2018-12-10T08:29:16.016Z,3.42
2018-12-10T08:30:16.027Z,3.40
2018-12-10T08:31:15.990Z,3.33
2018-12-10T08:32:15.985Z,3.46
2018-12-10T08:33:15.979Z,3.52
2018-12-10T08:34:15.975Z,3.53
2018-12-10T08:35:16.002Z,3.50
2018-12-10T08:36:15.967Z,3.61
2018-12-10T08:37:15.956Z,3.60
2018-12-10T08:38:15.948Z,3.65
2018-12-10T08:39:15.986Z,3.64
2018-12-10T08:40:16.013Z,3.61
2018-12-10T08:41:15.936Z,3.61
2018-12-10T08:42:15.930Z,3.70
2018-12-10T08:43:15.926Z,3.68
2018-12-10T08:44:15.919Z,3.70
2018-12-10T08:45:15.943Z,3.78
2018-12-10T08:46:15.906Z,3.68
2018-12-10T08:47:16.426Z,3.70
2018-12-10T08:48:15.897Z,3.82
2018-12-10T08:49:15.992Z,3.82
2018-12-10T08:50:15.918Z,3.82
2018-12-10T08:51:16.005Z,3.82
2018-12-10T08:52:15.879Z,3.79
2018-12-10T08:53:15.895Z,3.82
2018-12-10T08:54:15.865Z,3.78
2018-12-10T08:55:15.897Z,3.79
2018-12-10T08:56:15.852Z,3.76
2018-12-10T08:57:15.988Z,3.80
2018-12-10T08:58:15.841Z,3.83
2018-12-10T08:59:15.837Z,3.92
2018-12-10T09:00:15.857Z,3.82
2018-12-10T09:01:15.821Z,3.83
2018-12-10T09:02:15.817Z,3.98
2018-12-10T09:03:15.820Z,3.97
2018-12-10T09:04:15.806Z,3.90
2018-12-10T09:05:15.853Z,3.97
2018-12-10T09:06:15.801Z,4.00
2018-12-10T09:07:15.794Z,3.90
2018-12-10T09:08:15.789Z,3.80
2018-12-10T09:09:15.782Z,3.88
2018-12-10T09:10:15.807Z,3.86
2018-12-10T09:11:15.774Z,3.79
2018-12-10T09:12:15.768Z,3.82
2018-12-10T09:13:15.764Z,3.68
2018-12-10T09:14:15.757Z,3.62
2018-12-10T09:15:15.824Z,3.58
2018-12-10T09:16:15.783Z,3.70
2018-12-10T09:17:15.783Z,3.62
2018-12-10T09:18:15.736Z,3.67
2018-12-10T09:19:15.727Z,3.65
2018-12-10T09:20:15.756Z,3.68
2018-12-10T09:21:15.716Z,3.80
2018-12-10T09:22:15.719Z,3.79
2018-12-10T09:23:15.719Z,3.89
2018-12-10T09:24:15.703Z,3.89
2018-12-10T09:25:15.730Z,3.96
2018-12-10T09:26:15.696Z,3.92
2018-12-10T09:27:15.724Z,3.98
2018-12-10T09:28:19.446Z,3.97
2018-12-10T09:29:15.679Z,3.89
2018-12-10T09:30:15.710Z,3.98
2018-12-10T09:31:15.676Z,4.14
2018-12-10T09:32:15.703Z,4.21
2018-12-10T09:33:15.663Z,4.12
2018-12-10T09:34:15.659Z,4.25
2018-12-10T09:35:15.684Z,4.26
2018-12-10T09:36:15.644Z,4.36
2018-12-10T09:37:15.639Z,4.42
2018-12-10T09:38:15.636Z,4.61
2018-12-10T09:39:15.631Z,4.58
2018-12-10T09:40:15.654Z,4.47
2018-12-10T09:41:15.619Z,4.50
2018-12-10T09:42:15.611Z,4.33
2018-12-10T09:43:15.616Z,4.29
2018-12-10T09:44:15.603Z,4.16
2018-12-10T09:45:15.628Z,4.16
2018-12-10T09:46:15.600Z,4.10
2018-12-10T09:47:15.603Z,4.15
2018-12-10T09:48:15.606Z,4.14
2018-12-10T09:49:15.582Z,4.15
2018-12-10T09:50:15.614Z,4.18
2018-12-10T09:51:15.573Z,4.12
2018-12-10T09:52:15.570Z,4.15
2018-12-10T09:53:15.562Z,4.15
2018-12-10T09:54:15.558Z,4.14
2018-12-10T09:55:15.582Z,4.15
2018-12-10T09:56:15.546Z,4.12
2018-12-10T09:57:15.548Z,4.15
2018-12-10T09:58:15.541Z,4.15
2018-12-10T09:59:15.541Z,4.21
2018-12-10T10:00:15.567Z,4.26
2018-12-10T10:01:15.523Z,4.22
2018-12-10T10:02:15.522Z,4.29
2018-12-10T10:03:15.667Z,4.32
2018-12-10T10:04:15.524Z,4.29
2018-12-10T10:05:15.534Z,4.39
2018-12-10T10:06:15.503Z,4.34
2018-12-10T10:07:15.498Z,4.39
2018-12-10T10:08:15.494Z,4.42
2018-12-10T10:09:15.489Z,4.39
2018-12-10T10:10:15.514Z,4.54
2018-12-10T10:11:15.484Z,4.46
2018-12-10T10:12:15.474Z,4.46
2018-12-10T10:13:15.470Z,4.50
2018-12-10T10:14:15.466Z,4.50
2018-12-10T10:15:15.495Z,4.47
2018-12-10T10:16:15.455Z,4.52
2018-12-10T10:17:15.451Z,4.52
2018-12-10T10:18:15.478Z,4.59
2018-12-10T10:19:15.437Z,4.72
2018-12-10T10:20:15.441Z,4.64
2018-12-10T10:21:15.467Z,4.69
2018-12-10T10:22:15.428Z,4.55
2018-12-10T10:23:15.422Z,4.58
2018-12-10T10:24:15.417Z,4.51
2018-12-10T10:25:15.444Z,4.62
2018-12-10T10:26:15.413Z,4.50
2018-12-10T10:27:15.410Z,4.58
2018-12-10T10:28:15.405Z,4.55
2018-12-10T10:29:15.398Z,4.59
2018-12-10T10:30:15.427Z,4.46
2018-12-10T10:31:15.396Z,4.46
2018-12-10T10:32:15.392Z,4.50
2018-12-10T10:33:15.382Z,4.54
2018-12-10T10:34:15.373Z,4.58
2018-12-10T10:35:15.399Z,4.46
2018-12-10T10:36:15.364Z,4.54
2018-12-10T10:37:15.370Z,4.46
2018-12-10T10:38:15.360Z,4.52
2018-12-10T10:39:15.354Z,4.51
2018-12-10T10:40:15.386Z,4.51
2018-12-10T10:41:15.345Z,4.57
2018-12-10T10:42:15.351Z,4.47
2018-12-10T10:43:15.340Z,4.54
2018-12-10T10:44:15.379Z,4.44
2018-12-10T10:45:15.357Z,4.46
2018-12-10T10:46:15.324Z,4.46
2018-12-10T10:47:15.315Z,4.46
2018-12-10T10:48:15.313Z,4.47
2018-12-10T10:49:15.312Z,4.50
2018-12-10T10:50:15.335Z,4.43
2018-12-10T10:51:15.304Z,4.47
2018-12-10T10:52:15.299Z,4.42
2018-12-10T10:53:15.292Z,4.43
2018-12-10T10:54:15.292Z,4.58
2018-12-10T10:55:15.311Z,4.46
2018-12-10T10:56:15.279Z,4.59
2018-12-10T10:57:15.274Z,4.64
2018-12-10T10:58:15.270Z,4.64
2018-12-10T10:59:15.270Z,4.86
2018-12-10T11:00:15.297Z,4.75
2018-12-10T11:01:15.258Z,4.70
2018-12-10T11:02:15.251Z,4.70
2018-12-10T11:03:15.252Z,4.69
2018-12-10T11:04:15.244Z,4.69
2018-12-10T11:05:15.267Z,4.59
2018-12-10T11:06:15.234Z,4.59
2018-12-10T11:07:15.234Z,4.65
2018-12-10T11:08:15.257Z,4.61
2018-12-10T11:09:15.758Z,4.61
2018-12-10T11:10:15.221Z,4.70
2018-12-10T11:11:15.251Z,4.80
2018-12-10T11:12:15.210Z,4.80
2018-12-10T11:13:15.208Z,4.83
2018-12-10T11:14:15.204Z,4.95
2018-12-10T11:15:15.232Z,4.98
2018-12-10T11:16:15.267Z,4.99
2018-12-10T11:17:15.196Z,5.05
2018-12-10T11:18:15.185Z,4.95
2018-12-10T11:19:15.184Z,4.92
2018-12-10T11:20:15.183Z,5.01
2018-12-10T11:21:15.197Z,4.98
2018-12-10T11:22:15.168Z,5.05
2018-12-10T11:23:15.314Z,4.99
2018-12-10T11:24:15.162Z,5.01
2018-12-10T11:25:15.183Z,4.94
2018-12-10T11:26:15.147Z,5.09
2018-12-10T11:27:15.151Z,5.04
2018-12-10T11:28:15.143Z,5.10
2018-12-10T11:29:15.139Z,5.01
2018-12-10T11:30:15.168Z,5.07
2018-12-10T11:31:17.237Z,4.99
2018-12-10T11:32:15.131Z,5.07
2018-12-10T11:33:15.166Z,5.12
2018-12-10T11:34:15.120Z,5.12
2018-12-10T11:35:15.122Z,5.04
2018-12-10T11:36:15.141Z,5.02
2018-12-10T11:37:15.953Z,5.04
2018-12-10T11:38:15.105Z,5.13
2018-12-10T11:39:15.102Z,5.13
2018-12-10T11:40:15.100Z,5.14
2018-12-10T11:41:15.129Z,5.19
2018-12-10T11:42:15.090Z,5.19
2018-12-10T11:43:15.085Z,5.12
2018-12-10T11:44:15.081Z,5.10
2018-12-10T11:45:15.084Z,5.28
2018-12-10T11:46:15.101Z,5.28
2018-12-10T11:47:15.070Z,5.27
2018-12-10T11:48:15.065Z,5.23
2018-12-10T11:49:15.065Z,5.38
2018-12-10T11:50:15.187Z,5.38
2018-12-10T11:51:15.080Z,5.16
2018-12-10T11:52:15.053Z,5.16
2018-12-10T11:53:15.049Z,5.19
2018-12-10T11:54:15.053Z,5.19
2018-12-10T11:55:15.045Z,5.16
2018-12-10T11:56:15.062Z,5.14
2018-12-10T11:57:15.033Z,5.12
2018-12-10T11:58:15.028Z,5.10
2018-12-10T11:59:15.023Z,4.99
2018-12-10T12:00:15.024Z,5.04
2018-12-10T12:01:15.043Z,4.99
2018-12-10T12:02:15.015Z,5.10
2018-12-10T12:03:15.013Z,5.12
2018-12-10T12:04:15.004Z,5.02
2018-12-10T12:05:15.005Z,5.12
2018-12-10T12:06:15.039Z,5.01
2018-12-10T12:07:15.004Z,5.12
2018-12-10T12:08:15.005Z,5.16
2018-12-10T12:09:14.995Z,5.35
2018-12-10T12:10:14.990Z,5.55
2018-12-10T12:11:15.012Z,5.38
2018-12-10T12:12:14.979Z,5.34
2018-12-10T12:13:14.980Z,5.27
2018-12-10T12:14:14.973Z,5.27
2018-12-10T12:15:14.970Z,5.32
2018-12-10T12:16:14.997Z,5.34
2018-12-10T12:17:14.964Z,5.10
2018-12-10T12:18:14.960Z,5.22
2018-12-10T12:19:14.959Z,5.14
2018-12-10T12:20:14.952Z,5.12
2018-12-10T12:21:14.979Z,5.12
2018-12-10T12:22:14.946Z,5.16
2018-12-10T12:23:14.943Z,5.19
2018-12-10T12:24:14.935Z,5.10
2018-12-10T12:25:14.935Z,5.01
2018-12-10T12:26:14.961Z,4.92
2018-12-10T12:27:14.931Z,4.96
2018-12-10T12:28:14.922Z,4.94
2018-12-10T12:29:14.928Z,4.91
2018-12-10T12:30:14.921Z,4.94
2018-12-10T12:31:14.942Z,4.94
2018-12-10T12:32:14.914Z,4.91
2018-12-10T12:33:14.906Z,4.98
2018-12-10T12:34:14.902Z,4.84
2018-12-10T12:35:14.898Z,4.98
2018-12-10T12:36:14.922Z,4.92
2018-12-10T12:37:14.894Z,4.89
2018-12-10T12:38:14.888Z,4.92
2018-12-10T12:39:14.887Z,4.92
2018-12-10T12:40:14.882Z,4.91
2018-12-10T12:41:15.037Z,4.94
2018-12-10T12:42:14.874Z,4.92
2018-12-10T12:43:16.260Z,4.94
2018-12-10T12:44:14.868Z,4.92
2018-12-10T12:45:14.861Z,4.94
2018-12-10T12:46:14.881Z,4.94
2018-12-10T12:47:14.853Z,4.91
2018-12-10T12:48:14.848Z,4.98
2018-12-10T12:49:14.849Z,4.92
2018-12-10T12:50:14.841Z,5.17
2018-12-10T12:51:14.957Z,5.19
2018-12-10T12:52:14.834Z,5.49
2018-12-10T12:53:14.833Z,5.64
2018-12-10T12:54:14.828Z,5.63
2018-12-10T12:55:14.821Z,5.43
2018-12-10T12:56:14.846Z,5.38
2018-12-10T12:57:14.812Z,5.35
2018-12-10T12:58:14.809Z,5.28
2018-12-10T12:59:14.810Z,5.25
2018-12-10T13:00:14.837Z,5.10
2018-12-10T13:01:14.825Z,5.16
2018-12-10T13:02:14.797Z,5.10
2018-12-10T13:03:14.797Z,5.12
2018-12-10T13:04:14.797Z,5.02
2018-12-10T13:05:14.789Z,4.91
2018-12-10T13:06:14.816Z,5.04
2018-12-10T13:07:14.810Z,5.01
2018-12-10T13:08:14.841Z,5.02
2018-12-10T13:09:21.593Z,4.94
2018-12-10T13:10:14.772Z,4.95
2018-12-10T13:11:14.889Z,4.95
2018-12-10T13:12:14.800Z,4.84
2018-12-10T13:13:14.762Z,4.84
2018-12-10T13:14:14.761Z,4.73
2018-12-10T13:15:14.752Z,4.73
2018-12-10T13:16:14.775Z,4.62
2018-12-10T13:17:14.745Z,4.70
2018-12-10T13:18:14.744Z,4.61